Flight Track Log - Related Links

Times and Time Zones

All times are in EDT time to prevent confusion due to time zone crossing. See the SWA3232 flight status page for this flight to view local times or setup timezone preferences in your user account.

Time Position Orientation Groundspeed Altitude Reporting Facility
EDT Latitude Longitude Course Direction KTS MPH feet Rate Location/Type
Sun 07:01:54 PM 42.3500 -71.0167 144° Southeast 159 183 800  Level KA90
Sun 07:02:48 PM 42.3167 -70.9833 144° Southeast 222 255 2,700 2,000 Climbing KA90
Sun 07:03:48 PM 42.3167 -70.8833 90° East 284 327 4,600 2,283 Climbing KA90
Sun 07:04:41 PM 42.3322 -70.8000 76° East 294 338 7,000 2,920 Climbing Boston Center
Sun 07:05:41 PM 42.2933 -70.6972 117° Southeast 314 361 10,100 2,800 Climbing Boston Center
Sun 07:06:41 PM 42.2050 -70.6464 157° South 314 361 12,600 2,950 Climbing Boston Center
Sun 07:07:41 PM 42.1047 -70.6322 174° South 332 382 16,000 3,250 Climbing Boston Center
Sun 07:08:41 PM 41.9989 -70.6772 198° South 342 394 19,100 2,850 Climbing Boston Center
Sun 07:09:41 PM 41.8956 -70.7219 198° South 370 426 21,700 2,250 Climbing Boston Center
Sun 07:10:41 PM 41.8128 -70.7661 202° Southwest 390 449 23,600 2,150 Climbing Boston Center
Sun 07:11:41 PM 41.6931 -70.8500 208° Southwest 400 460 26,000 1,950 Climbing Boston Center
Sun 07:12:41 PM 41.6025 -70.9272 213° Southwest 423 487 27,500 1,600 Climbing Boston Center
Sun 07:13:41 PM 41.5100 -71.0292 220° Southwest 435 501 29,200 1,250 Climbing Boston Center
Sun 07:14:41 PM 41.4322 -71.1553 231° Southwest 435 501 30,000 397 Climbing Boston Center
Sun 07:15:42 PM 41.3544 -71.2842 231° Southwest 445 512 30,000  Level Boston Center
Sun 07:16:41 PM 41.2908 -71.3792 228° Southwest 445 512 30,000  Level Boston Center
Sun 07:17:41 PM 41.2025 -71.5353 233° Southwest 445 512 30,000  Level Boston Center
Sun 07:18:41 PM 41.1328 -71.6739 236° Southwest 435 501 30,000  Level Boston Center
Sun 07:19:41 PM 41.0919 -71.7928 246° West 435 501 30,000  Level Boston Center
Sun 07:20:41 PM 41.0197 -71.9586 240° Southwest 435 501 30,000  Level Boston Center
Sun 07:21:41 PM 40.9347 -72.0719 225° Southwest 441 507 30,000  Level Boston Center
Sun 07:22:53 PM 40.8475 -72.1878 223° Southwest 441 507 30,000  Level Boston Center
Sun 07:23:00 PM 40.8270 -72.2056 223° Southwest  Level FlightAware Approximate
Sun 07:23:53 PM 40.7436 -72.3194 224° Southwest 441 507 30,000  Level Boston Center
Sun 07:24:53 PM 40.6542 -72.4292 223° Southwest 448 516 30,000  Level Boston Center
Sun 07:25:53 PM 40.5664 -72.5411 224° Southwest 442 509 30,000  Level Boston Center
Sun 07:26:53 PM 40.4789 -72.6528 224° Southwest 442 509 30,000  Level Boston Center
Sun 07:27:53 PM 40.3869 -72.7642 223° Southwest 442 509 30,000  Level Boston Center
Sun 07:28:53 PM 40.3031 -72.8756 225° Southwest 444 511 30,000  Level Boston Center
Sun 07:29:53 PM 40.2111 -72.9808 221° Southwest 444 511 30,000  Level Boston Center
Sun 07:30:53 PM 40.1333 -73.0833 225° Southwest 444 511 30,000  Level Boston Center
Sun 07:31:53 PM 40.0494 -73.1936 225° Southwest 438 504 30,000  Level Boston Center
Sun 07:32:25 PM 39.9989 -73.2517 221° Southwest 439 505 30,000  Level Washington Center
Sun 07:33:26 PM 39.9136 -73.3597 224° Southwest 425 489 30,000  Level Washington Center
Sun 07:34:26 PM 39.8467 -73.4672 231° Southwest 425 489 30,000  Level Washington Center
Sun 07:35:24 PM 39.7758 -73.5908 233° Southwest 430 495 30,000  Level Washington Center
Sun 07:36:25 PM 39.7050 -73.7117 233° Southwest 430 495 30,000  Level Washington Center
Sun 07:37:26 PM 39.6339 -73.8375 234° Southwest 430 495 30,000 -202 Level Washington Center
Sun 07:38:24 PM 39.5606 -73.9578 232° Southwest 430 495 29,600 -610 Descending Washington Center
Sun 07:39:24 PM 39.4833 -74.0939 234° Southwest 430 495 28,800 -885 Descending Washington Center
Sun 07:40:26 PM 39.4075 -74.2164 231° Southwest 435 501 27,800 -1,050 Descending Washington Center
Sun 07:41:24 PM 39.3319 -74.3439 233° Southwest 446 513 26,700 -1,059 Descending Washington Center
Sun 07:42:25 PM 39.2622 -74.4631 233° Southwest 440 506 25,700 -992 Descending Washington Center
Sun 07:43:25 PM 39.1925 -74.5792 232° Southwest 427 491 24,700 -992 Descending Washington Center
Sun 07:44:26 PM 39.1244 -74.6925 232° Southwest 415 478 23,700 -1,008 Descending Washington Center
Sun 07:45:24 PM 39.0586 -74.8058 233° Southwest 410 472 22,700 -1,450 Descending Washington Center
Sun 07:46:26 PM 38.9906 -74.9106 230° Southwest 404 465 20,800 -2,100 Descending Washington Center
Sun 07:47:24 PM 38.9286 -75.0153 233° Southwest 388 447 18,500 -2,370 Descending Washington Center
Sun 07:48:25 PM 38.8664 -75.1197 233° Southwest 377 434 16,100 -2,016 Descending Washington Center
Sun 07:49:26 PM 38.8125 -75.2239 236° Southwest 370 426 14,400 -1,059 Descending Washington Center
Sun 07:50:24 PM 38.8006 -75.3572 263° West 355 409 14,000 -203 Descending Washington Center
Sun 07:51:24 PM 38.7922 -75.4772 265° West 349 402 14,000  Level Washington Center
Sun 07:52:25 PM 38.7842 -75.6022 265° West 355 409 14,000  Level Washington Center
Sun 07:53:26 PM 38.7778 -75.7328 266° West 360 414 14,000 -149 Level Washington Center
Sun 07:54:26 PM 38.7692 -75.8578 265° West 360 414 13,700 -1,250 Descending Washington Center
Sun 07:55:26 PM 38.7606 -75.9803 265° West 360 414 11,500 -1,424 Descending Washington Center
Sun 07:56:24 PM 38.7539 -76.0947 266° West 344 396 10,900 -555 Descending Washington Center
Sun 07:57:25 PM 38.7514 -76.1933 268° West 326 375 10,400 -984 Descending Washington Center
Sun 07:58:26 PM 38.8031 -76.2708 311° West 281 323 8,900 -1,412 Descending Washington Center
Sun 07:59:24 PM 38.8672 -76.3222 328° Northwest 270 311 7,600 -1,361 Descending Washington Center
Sun 08:00:25 PM 38.9486 -76.3364 352° North 262 302 6,200 -1,230 Descending Washington Center
Sun 08:01:26 PM 39.0278 -76.3506 352° North 268 308 5,100 -595 Descending Washington Center
Sun 08:02:26 PM 39.0775 -76.3858 331° Northwest 260 299 5,000 -518 Descending Washington Center
Sun 08:03:45 PM 39.0667 -76.4667 260° West 169 194 3,900 -950 Descending Potomac TRACON
Sun 08:04:45 PM 39.0500 -76.5333 252° West 171 197 2,800 -950 Descending Potomac TRACON
Sun 08:05:45 PM 39.0833 -76.5833 311° West 164 189 2,000 -700 Descending Potomac TRACON
Sun 08:06:45 PM 39.1167 -76.6167 322° Northwest 152 175 1,400 -650 Descending Potomac TRACON
Sun 08:07:45 PM 39.1500 -76.6500 322° Northwest 131 151 700 -700 Descending Potomac TRACON
Sun 08:09:00 PM 39.1667 -76.6667 308° West  Level FlightAware Approximate
Sun 08:16:00 PM 39.1754 -76.6683 308° West  Level Estimated
Sun 08:17:00 PM 39.1754 -76.6683 308° West  Level Estimated
Sun 08:18:00 PM 39.1754 -76.6683 308° West  Level Estimated
Sun 08:19:00 PM 39.1754 -76.6683 308° West  Level Estimated

Login

Don't have an account? Register now (free) for customized features, flight alerts, and more!